Flight Track Log - Related Links

Times and Time Zones

All times are in EDT time to prevent confusion due to time zone crossing. See the DAL1079 flight status page for this flight to view local times or setup timezone preferences in your user account.

Time Position Orientation Groundspeed Altitude Reporting Facility
EDT Latitude Longitude Course Direction KTS MPH feet Rate Location/Type
Thu 06:47:57 PM 33.6331 -84.3781 70° East 447 514 2,300  Level Atlanta Center
Thu 06:48:57 PM 33.6333 -84.2908 90° East 338 389 4,500 2,500 Climbing Atlanta Center
Thu 06:49:57 PM 33.6333 -84.2036 90° East 283 326 7,300 2,650 Climbing Atlanta Center
Thu 06:50:00 PM 33.9693 -84.0432 53° Northeast  Level Estimated
Thu 06:50:57 PM 33.6336 -84.1061 90° East 300 345 9,800  Level Atlanta Center
Thu 06:51:00 PM 34.0096 -83.9128 70° East  Level FlightAware Approximate
Thu 06:51:57 PM 33.6919 -84.0264 49° Northeast 290 334 11,000  Level Atlanta Center
Thu 06:52:00 PM 34.0497 -83.7824 70° East  Level FlightAware Approximate
Thu 06:52:57 PM 33.7608 -83.9339 48° Northeast 342 394 12,700  Level Atlanta Center
Thu 06:53:00 PM 34.0897 -83.6518 70° East  Level FlightAware Approximate
Thu 06:53:57 PM 33.8358 -83.8336 48° Northeast 386 444 15,000  Level Atlanta Center
Thu 06:54:57 PM 33.9150 -83.7308 47° Northeast 406 467 17,200 1,850 Climbing Atlanta Center
Thu 06:55:57 PM 33.9875 -83.6206 52° Northeast 417 480 18,700 1,550 Climbing Atlanta Center
Thu 06:56:57 PM 34.0622 -83.4997 53° Northeast 440 506 20,300 1,550 Climbing Atlanta Center
Thu 06:57:57 PM 34.1408 -83.3686 54° Northeast 440 506 21,800 1,450 Climbing Atlanta Center
Thu 06:58:57 PM 34.2194 -83.2450 52° Northeast 451 519 23,200 1,500 Climbing Atlanta Center
Thu 06:59:57 PM 34.3000 -83.1183 52° Northeast 458 527 24,800 1,600 Climbing Atlanta Center
Thu 07:00:57 PM 34.3742 -82.9969 53° Northeast 458 527 26,400 1,500 Climbing Atlanta Center
Thu 07:01:57 PM 34.4525 -82.8725 53° Northeast 453 521 27,800 1,250 Climbing Atlanta Center
Thu 07:02:57 PM 34.5306 -82.7478 53° Northeast 459 528 28,900 1,250 Climbing Atlanta Center
Thu 07:03:57 PM 34.6083 -82.6231 53° Northeast 459 528 30,300 1,350 Climbing Atlanta Center
Thu 07:04:57 PM 34.6739 -82.5183 53° Northeast 454 522 31,600 1,000 Climbing Atlanta Center
Thu 07:05:57 PM 34.7494 -82.3981 53° Northeast 444 511 32,300 700 Climbing Atlanta Center
Thu 07:06:57 PM 34.8208 -82.2753 55° Northeast 439 505 33,000 350 Climbing Atlanta Center
Thu 07:07:57 PM 34.8922 -82.1597 53° Northeast 434 499 33,000  Level Atlanta Center
Thu 07:08:57 PM 34.9694 -82.0339 53° Northeast 434 499 33,000  Level Atlanta Center
Thu 07:09:57 PM 35.0383 -81.9131 55° Northeast 434 499 33,000  Level Atlanta Center
Thu 07:10:57 PM 35.1050 -81.7894 57° Northeast 434 499 33,000  Level Atlanta Center
Thu 07:11:57 PM 35.1717 -81.6681 56° Northeast 429 494 33,000  Level Atlanta Center
Thu 07:12:57 PM 35.2358 -81.5417 58° Northeast 429 494 33,000  Level Atlanta Center
Thu 07:13:57 PM 35.3000 -81.4175 58° Northeast 429 494 33,000  Level Atlanta Center
Thu 07:14:57 PM 35.3642 -81.2908 58° Northeast 429 494 33,000  Level Atlanta Center
Thu 07:15:57 PM 35.4281 -81.1639 58° Northeast 434 499 33,000  Level Atlanta Center
Thu 07:16:57 PM 35.4958 -81.0339 57° Northeast 445 512 33,000  Level Atlanta Center
Thu 07:17:57 PM 35.5636 -80.9089 56° Northeast 445 512 33,000  Level Atlanta Center
Thu 07:18:57 PM 35.6272 -80.7889 57° Northeast 440 506 33,000  Level Atlanta Center
Thu 07:19:57 PM 35.6925 -80.6611 58° Northeast 440 506 33,000  Level Atlanta Center
Thu 07:20:57 PM 35.7558 -80.5356 58° Northeast 440 506 33,000  Level Atlanta Center
Thu 07:21:57 PM 35.8211 -80.4125 57° Northeast 435 501 33,000  Level Atlanta Center
Thu 07:22:57 PM 35.8761 -80.2972 59° Northeast 435 501 33,000  Level Atlanta Center
Thu 07:24:38 PM 35.9861 -80.0869 57° Northeast 430 495 33,000  Level Washington Center
Thu 07:25:39 PM 36.0511 -79.9672 56° Northeast 419 482 33,000  Level Washington Center
Thu 07:26:40 PM 36.1200 -79.8478 54° Northeast 419 482 33,000  Level Washington Center
Thu 07:27:38 PM 36.2097 -79.7264 47° Northeast 432 497 33,000  Level Washington Center
Thu 07:28:39 PM 36.2947 -79.6253 44° Northeast 427 491 33,000  Level Washington Center
Thu 07:29:40 PM 36.3728 -79.5336 43° Northeast 421 484 33,000  Level Washington Center
Thu 07:30:40 PM 36.4533 -79.4319 45° Northeast 421 484 33,000  Level Washington Center
Thu 07:31:38 PM 36.5381 -79.3275 45° Northeast 421 484 33,000  Level Washington Center
Thu 07:32:39 PM 36.6314 -79.2131 45° Northeast 421 484 33,000  Level Washington Center
Thu 07:33:40 PM 36.7158 -79.1081 45° Northeast 421 484 33,000  Level Washington Center
Thu 07:34:38 PM 36.8000 -79.0056 44° Northeast 421 484 33,000  Level Washington Center
Thu 07:35:39 PM 36.8844 -78.9003 45° Northeast 421 484 33,000  Level Washington Center
Thu 07:36:40 PM 36.9600 -78.8047 45° Northeast 421 484 33,000  Level Washington Center
Thu 07:37:38 PM 37.0483 -78.7017 43° Northeast 421 484 33,000  Level Washington Center
Thu 07:38:38 PM 37.1303 -78.5956 46° Northeast 421 484 33,000  Level Washington Center
Thu 07:39:39 PM 37.2228 -78.4792 45° Northeast 421 484 33,000  Level Washington Center
Thu 07:40:40 PM 37.3067 -78.3753 45° Northeast 421 484 33,000  Level Washington Center
Thu 07:41:38 PM 37.3883 -78.2711 45° Northeast 421 484 33,000  Level Washington Center
Thu 07:42:38 PM 37.4633 -78.1794 44° Northeast 421 484 33,000  Level Washington Center
Thu 07:43:40 PM 37.5514 -78.0647 46° Northeast 421 484 33,000  Level Washington Center
Thu 07:44:41 PM 37.6325 -77.9622 45° Northeast 421 484 33,000  Level Washington Center
Thu 07:45:38 PM 37.7161 -77.8572 45° Northeast 421 484 33,000  Level Washington Center
Thu 07:46:39 PM 37.7972 -77.7547 45° Northeast 421 484 33,000  Level Washington Center
Thu 07:47:40 PM 37.8783 -77.6492 46° Northeast 421 484 33,000  Level Washington Center
Thu 07:48:38 PM 37.9614 -77.5461 44° Northeast 421 484 33,000  Level Washington Center
Thu 07:49:39 PM 38.0253 -77.4606 47° Northeast 421 484 33,000  Level Washington Center
Thu 07:50:40 PM 38.1103 -77.3439 47° Northeast 416 479 33,000  Level Washington Center
Thu 07:51:38 PM 38.1911 -77.2403 45° Northeast 416 479 33,000  Level Washington Center
Thu 07:52:38 PM 38.2822 -77.1233 45° Northeast 416 479 33,000  Level Washington Center
Thu 07:53:39 PM 38.3544 -77.0294 46° Northeast 416 479 33,000  Level Washington Center
Thu 07:54:39 PM 38.4347 -76.9222 46° Northeast 416 479 33,000  Level Washington Center
Thu 07:55:40 PM 38.5131 -76.8175 46° Northeast 416 479 33,000  Level Washington Center
Thu 07:56:38 PM 38.5933 -76.7100 46° Northeast 416 479 33,000  Level Washington Center
Thu 07:57:38 PM 38.6756 -76.6047 45° Northeast 416 479 33,000  Level Washington Center
Thu 07:58:39 PM 38.7578 -76.4969 46° Northeast 416 479 33,000  Level Washington Center
Thu 07:59:40 PM 38.8378 -76.3911 46° Northeast 421 484 33,000  Level Washington Center
Thu 08:00:38 PM 38.9197 -76.2800 47° Northeast 421 484 33,000  Level Washington Center
Thu 08:01:38 PM 39.0017 -76.1714 46° Northeast 421 484 33,000  Level Washington Center
Thu 08:02:38 PM 39.0833 -76.0622 46° Northeast 421 484 33,000  Level Washington Center
Thu 08:03:39 PM 39.1669 -75.9531 45° Northeast 421 484 33,000  Level Washington Center
Thu 08:04:40 PM 39.2444 -75.8381 49° Northeast 421 484 33,000  Level Washington Center
Thu 08:05:41 PM 39.3239 -75.7258 48° Northeast 421 484 33,000  Level Washington Center
Thu 08:06:38 PM 39.4053 -75.6131 47° Northeast 421 484 33,000  Level Washington Center
Thu 08:07:38 PM 39.4844 -75.5003 48° Northeast 421 484 33,000  Level Washington Center
Thu 08:08:40 PM 39.5656 -75.3869 47° Northeast 421 484 33,000  Level Washington Center
Thu 08:10:24 PM 39.7094 -75.1939 46° Northeast 407 468 33,000  Level New York Center
Thu 08:11:24 PM 39.7892 -75.0717 50° Northeast 409 471 33,000  Level New York Center
Thu 08:12:24 PM 39.8703 -74.9606 46° Northeast 416 479 33,000  Level New York Center
Thu 08:13:24 PM 39.9514 -74.8461 47° Northeast 416 479 33,000  Level New York Center
Thu 08:14:24 PM 40.0567 -74.7519 34° Northeast 408 470 33,000 -50 Level New York Center
Thu 08:15:24 PM 40.1728 -74.7153 14° North 408 470 32,900  Descending New York Center
Thu 08:16:24 PM 40.2844 -74.6725 16° North 408 470 33,000 50 Climbing New York Center
Thu 08:17:24 PM 40.3964 -74.6325 15° North 408 470 33,000  Level New York Center
Thu 08:19:15 PM 40.5989 -74.6486 357° North 421 484 33,000  Level Boston Center
Thu 08:20:15 PM 40.6608 -74.7794 302° West 377 434 33,000  Level Boston Center
Thu 08:21:16 PM 40.7733 -74.7861 357° North 378 435 33,000  Level Boston Center
Thu 08:22:16 PM 40.8850 -74.7297 21° North 389 448 33,000  Level Boston Center
Thu 08:23:17 PM 40.9986 -74.6761 20° North 401 461 33,000  Level Boston Center
Thu 08:24:17 PM 41.1100 -74.6247 19° North 411 473 33,000  Level Boston Center
Thu 08:25:16 PM 41.2217 -74.5678 21° North 416 479 33,000  Level Boston Center
Thu 08:26:17 PM 41.3331 -74.5161 19° North 427 491 33,000  Level Boston Center
Thu 08:27:15 PM 41.4467 -74.4589 21° North 427 491 33,000  Level Boston Center
Thu 08:28:16 PM 41.5328 -74.4147 21° North 427 491 33,000  Level Boston Center
Thu 08:29:16 PM 41.6694 -74.3494 20° North 427 491 33,000  Level Boston Center
Thu 08:30:17 PM 41.7808 -74.2914 21° North 433 498 33,000  Level Boston Center
Thu 08:31:17 PM 41.8794 -74.2469 19° North 420 483 33,000  Level Boston Center
Thu 08:32:17 PM 41.9908 -74.1886 21° North 420 483 33,000  Level Boston Center
Thu 08:33:15 PM 42.1044 -74.1331 20° North 425 489 33,000  Level Boston Center
Thu 08:34:15 PM 42.1933 -74.0261 42° Northeast 425 489 33,000 -545 Level Boston Center
Thu 08:35:16 PM 42.2453 -73.8817 64° Northeast 411 473 31,900 -1,289 Descending Boston Center
Thu 08:36:16 PM 42.2950 -73.7369 65° Northeast 416 479 30,400 -1,884 Descending Boston Center
Thu 08:37:17 PM 42.3486 -73.5892 64° Northeast 432 497 28,100 -1,934 Descending Boston Center
Thu 08:38:17 PM 42.4022 -73.4383 64° Northeast 432 497 26,500 -1,563 Descending Boston Center
Thu 08:39:16 PM 42.4619 -73.2589 66° East 448 516 25,000 -1,361 Descending Boston Center
Thu 08:40:16 PM 42.5131 -73.1161 64° Northeast 440 506 23,800 -1,289 Descending Boston Center
Thu 08:41:17 PM 42.5617 -72.9672 66° East 429 494 22,400 -1,240 Descending Boston Center
Thu 08:42:17 PM 42.6081 -72.8378 64° Northeast 414 476 21,300 -1,109 Descending Boston Center
Thu 08:43:16 PM 42.6564 -72.6942 65° Northeast 409 471 20,200 -1,650 Descending Boston Center
Thu 08:44:17 PM 42.7047 -72.5672 63° Northeast 391 450 18,000 -2,182 Descending Boston Center
Thu 08:45:17 PM 42.7483 -72.4372 65° Northeast 380 437 15,800 -2,100 Descending Boston Center
Thu 08:46:17 PM 42.7900 -72.3100 66° East 369 425 13,800 -1,576 Descending Boston Center
Thu 08:47:15 PM 42.8044 -72.1883 81° East 348 400 12,700 -1,109 Descending Boston Center
Thu 08:48:16 PM 42.8125 -72.0833 84° East 315 362 11,600 -1,438 Descending Boston Center
Thu 08:49:16 PM 42.8203 -71.9617 85° East 295 339 9,800 -1,820 Descending Boston Center
Thu 08:50:18 PM 42.8283 -71.8597 84° East 295 339 7,900 -2,118 Descending Boston Center
Thu 08:51:15 PM 42.8108 -71.7439 102° East 283 326 5,600 -2,067 Descending Boston Center
Thu 08:52:17 PM 42.7917 -71.6592 107° East 270 311 3,800 -1,525 Descending Boston Center
Thu 08:53:17 PM 42.8100 -71.5939 69° East 229 264 2,500 -915 Descending Boston Center
Thu 08:54:15 PM 42.8594 -71.5367 40° Northeast 182 209 2,000 -661 Descending Boston Center
Thu 08:55:15 PM 42.8925 -71.4936 44° Northeast 156 180 1,200 -787 Descending Boston Center
Thu 08:56:17 PM 42.9192 -71.4592 43° Northeast 150 173 400 -450 Descending Boston Center
Thu 08:57:15 PM 42.9544 -71.4217 38° Northeast 150 173 300 9,458 Descending Boston Center
Thu 08:58:15 PM 42.9853 -71.3842 42° Northeast 150 173 19,000 9,273 Climbing Boston Center
Thu 08:59:16 PM 43.0161 -71.3497 39° Northeast 150 173 19,000  Level Boston Center
Thu 09:00:17 PM 43.0472 -71.3122 41° Northeast 150 173 19,000  Level Boston Center
Thu 09:01:15 PM 43.0533 -71.3064 35° Northeast 150 173 19,000  Level Boston Center

Login

Don't have an account? Register now (free) for customized features, flight alerts, and more!